Salinas, California
Current Conditions -  °F | °C
As of 12:53 PM on Thursday 18 Dec 2014 (Local Time) from KSNS Reporting Station
Overcast Overcast  
Wind Chill: 59°   Ceiling: 3400
Heat Index: 59°   Visibility: 8mi
Dew Point: 50°   Wind: 7mph
Humidity: 72%   Direction: 100°E
Pressure: 30.16"   Gusts: NA
Location:  36.67°N, 121.65°W
Report Text: KSNS 182053Z 10006KT 8SM SCT028 BKN034 OVC046 15/10 A3016 RMK AO2 RAB30E48 SLP223 P0000 60000 T01500100 58003
Loading
Personal Weather Stations






























Interactive Weather Map New forecast layout! Learn more

10-Day Weather Forecast

Advertisements
Track Severe Weather on mobile